Time;durP1;ratioP1;P1;durP2;ratioP2;P2;SDS_P1;SDS_P2;PMS_P1;PMS_P2;Temp;Humidity;BMP_temperature;BMP_pressure;BME280_temperature;BME280_humidity;BME280_pressure;Samples;Min_cycle;Max_cycle;Signal;HPM_P1;HPM_P2
2022/04/09 04:33:03;;;;;;;;;5.00;5.00;;;;;6.80;67.91;100921.47;5038533;27;45564;-77
2022/04/09 04:35:28;;;;;;;;;2.25;2.25;;;;;6.84;68.31;100925.81;5033266;28;45662;-76
2022/04/09 04:37:54;;;;;;;;;6.00;3.00;;;;;6.77;67.16;100915.38;5034051;28;45341;-76
2022/04/09 04:40:19;;;;;;;;;5.00;5.00;;;;;6.77;68.32;100907.38;5033861;28;45280;-76
2022/04/09 04:42:45;;;;;;;;;5.25;4.00;;;;;6.88;67.87;100920.41;5034239;28;45485;-76
2022/04/09 04:45:11;;;;;;;;;2.00;2.00;;;;;6.91;67.71;100926.50;5033826;28;45734;-74
2022/04/09 04:47:47;;;;;;;;;7.75;5.00;;;;;6.89;67.85;100922.16;5033749;28;45312;-75
2022/04/09 04:50:14;;;;;;;;;6.00;4.50;;;;;6.87;67.70;100930.19;5015554;28;46295;-76
2022/04/09 04:52:39;;;;;;;;;6.00;5.00;;;;;6.71;67.66;100936.84;5022911;28;45374;-76
2022/04/09 04:55:06;;;;;;;;;3.00;3.00;;;;;6.55;67.74;100922.19;5013913;28;45214;-76
2022/04/09 04:57:43;;;;;;;;;8.50;5.25;;;;;6.53;67.98;100940.00;5012298;28;45439;-76
2022/04/09 05:00:10;;;;;;;;;7.00;5.50;;;;;6.46;69.03;100918.84;5014165;28;45400;-76
2022/04/09 05:02:35;;;;;;;;;6.75;6.75;;;;;6.59;69.27;100932.72;5014069;28;45373;-75
2022/04/09 05:05:01;;;;;;;;;7.00;5.75;;;;;6.67;68.40;100944.03;5013420;28;45636;-77
2022/04/09 05:07:38;;;;;;;;;6.00;6.00;;;;;6.55;68.09;100944.34;5013727;28;45383;-75
2022/04/09 05:10:08;;;;;;;;;8.25;7.75;;;;;6.53;68.73;100946.22;5021584;28;45521;-74
2022/04/09 05:12:35;;;;;;;;;7.75;7.25;;;;;6.52;69.20;100951.56;5033752;28;45341;-77
2022/04/09 05:15:01;;;;;;;;;9.75;8.25;;;;;6.51;69.74;100955.16;5033653;28;45426;-76
2022/04/09 05:17:27;;;;;;;;;9.75;7.75;;;;;6.45;70.05;100948.19;5022972;28;46328;-75
2022/04/09 05:19:52;;;;;;;;;12.50;11.00;;;;;6.47;69.79;100949.00;5044820;28;45492;-77
2022/04/09 05:22:17;;;;;;;;;10.75;9.75;;;;;6.50;69.35;100948.06;5032508;28;45484;-76
2022/04/09 05:24:43;;;;;;;;;12.00;10.00;;;;;6.57;69.38;100952.31;5033644;28;45516;-77
2022/04/09 05:27:08;;;;;;;;;12.00;10.25;;;;;6.62;69.64;100945.97;5019524;28;45201;-78
2022/04/09 05:29:33;;;;;;;;;11.50;9.00;;;;;6.67;69.84;100945.84;5029971;28;45429;-78
2022/04/09 05:32:00;;;;;;;;;10.00;10.00;;;;;6.68;69.19;100948.47;5030961;28;45206;-77
2022/04/09 05:34:25;;;;;;;;;10.00;10.00;;;;;6.64;69.28;100945.91;5056845;28;46220;-77
2022/04/09 05:36:50;;;;;;;;;10.00;10.00;;;;;6.46;69.96;100936.63;5056862;28;46128;-77
2022/04/09 05:39:17;;;;;;;;;14.00;11.75;;;;;6.54;70.13;100960.41;5057095;28;45689;-74
2022/04/09 05:41:43;;;;;;;;;10.00;10.00;;;;;6.57;71.02;100966.50;5057069;28;45532;-77
2022/04/09 05:44:09;;;;;;;;;11.00;11.00;;;;;6.57;70.26;100962.97;5056834;28;45334;-76
2022/04/09 05:46:34;;;;;;;;;17.00;13.00;;;;;6.66;70.24;100976.03;5056653;28;45688;-76
2022/04/09 05:48:59;;;;;;;;;13.00;10.75;;;;;6.66;70.58;100957.41;5056426;28;45384;-76
2022/04/09 05:51:24;;;;;;;;;13.75;11.00;;;;;6.72;70.94;100973.25;5056941;28;45529;-77
2022/04/09 05:53:50;;;;;;;;;13.25;10.75;;;;;6.72;70.39;100973.25;5056923;28;45523;-76
2022/04/09 05:56:15;;;;;;;;;18.50;13.00;;;;;6.62;70.40;100963.75;5056821;28;45428;-75
2022/04/09 05:58:42;;;;;;;;;12.00;11.00;;;;;6.76;70.48;100983.75;5057122;28;45275;-75
2022/04/09 06:01:08;;;;;;;;;14.50;12.25;;;;;6.82;69.67;100988.03;5056721;28;45409;-77
2022/04/09 06:03:33;;;;;;;;;14.00;12.00;;;;;6.80;70.33;100977.41;5056102;28;45580;-75
2022/04/09 06:05:58;;;;;;;;;13.25;11.75;;;;;6.92;70.52;100992.22;5056349;28;46116;-75
2022/04/09 06:08:24;;;;;;;;;13.75;12.00;;;;;6.96;69.77;100977.91;5056519;28;45312;-76
2022/04/09 06:10:49;;;;;;;;;12.25;11.00;;;;;6.98;69.67;100978.72;5056436;28;45785;-74
2022/04/09 06:13:15;;;;;;;;;10.00;9.50;;;;;7.00;69.47;100974.22;5056048;28;45231;-74
2022/04/09 06:15:41;;;;;;;;;13.75;10.75;;;;;7.05;69.09;100988.31;5054674;28;47090;-75
2022/04/09 06:18:08;;;;;;;;;14.25;11.00;;;;;6.99;69.27;100985.81;5042376;28;45494;-75
2022/04/09 06:20:33;;;;;;;;;16.00;14.25;;;;;7.10;69.42;101002.38;5035941;28;45335;-76
2022/04/09 06:22:59;;;;;;;;;12.00;12.00;;;;;7.07;70.01;100998.91;5036270;28;45384;-75
2022/04/09 06:25:25;;;;;;;;;14.00;12.00;;;;;7.05;69.71;101001.66;5033972;28;46086;-76
2022/04/09 06:27:51;;;;;;;;;12.25;10.00;;;;;6.98;70.44;101002.72;5036103;28;45466;-80
2022/04/09 06:30:16;;;;;;;;;11.75;10.75;;;;;6.95;70.66;101007.25;5031493;28;45436;-76
2022/04/09 06:32:42;;;;;;;;;11.00;10.00;;;;;7.00;70.39;101021.34;5049116;28;45544;-79
2022/04/09 06:35:08;;;;;;;;;13.25;10.00;;;;;7.08;70.31;101028.22;5055726;28;45383;-76
2022/04/09 06:37:36;;;;;;;;;11.50;9.75;;;;;7.10;70.03;101031.72;5056085;28;45308;-75
2022/04/09 06:40:02;;;;;;;;;7.75;7.75;;;;;6.99;70.34;101030.25;5056018;28;45363;-74
2022/04/09 06:42:28;;;;;;;;;9.50;8.25;;;;;6.84;71.09;101032.41;5056068;28;45336;-75
2022/04/09 06:44:53;;;;;;;;;10.25;6.25;;;;;6.79;70.85;101026.34;5055939;28;46013;-77
2022/04/09 06:47:19;;;;;;;;;13.25;8.00;;;;;6.81;71.42;101029.81;5058858;28;45517;-81
2022/04/09 06:49:44;;;;;;;;;9.75;8.00;;;;;6.96;71.52;101054.34;5057369;28;45387;-75
2022/04/09 06:52:09;;;;;;;;;8.50;7.25;;;;;7.05;71.64;101044.31;5056018;28;45517;-74
2022/04/09 06:54:35;;;;;;;;;6.25;6.25;;;;;7.07;71.31;101047.78;5055707;28;45977;-76
2022/04/09 06:57:00;;;;;;;;;8.00;7.00;;;;;7.11;70.62;101049.47;5055661;28;45305;-77
2022/04/09 06:59:25;;;;;;;;;9.25;6.75;;;;;7.14;71.04;101053.84;5055641;28;45490;-75
2022/04/09 07:01:51;;;;;;;;;8.00;7.00;;;;;7.17;70.11;101061.75;5054881;28;45338;-76
2022/04/09 07:04:16;;;;;;;;;7.00;6.75;;;;;7.01;70.75;101037.28;5054277;28;46354;-75
2022/04/09 07:06:44;;;;;;;;;7.75;5.00;;;;;7.22;70.98;101066.06;5055494;28;45296;-76
2022/04/09 07:09:09;;;;;;;;;5.00;5.00;;;;;7.21;70.42;101074.09;5055398;28;45236;-79
2022/04/09 07:11:35;;;;;;;;;4.75;4.75;;;;;7.15;70.26;101072.44;5062259;28;45320;-73
2022/04/09 07:14:00;;;;;;;;;9.75;6.00;;;;;7.15;70.75;101072.44;5074767;28;45809;-75
2022/04/09 07:16:26;;;;;;;;;5.75;5.75;;;;;6.99;71.06;101076.44;5055189;28;45460;-74
2022/04/09 07:18:51;;;;;;;;;5.00;5.00;;;;;7.04;71.33;101079.88;5068115;28;45367;-74
2022/04/09 07:21:16;;;;;;;;;8.50;6.00;;;;;7.08;71.55;101077.97;5055160;28;45354;-76
2022/04/09 07:23:42;;;;;;;;;5.75;5.00;;;;;7.07;70.67;101081.56;5053992;28;46073;-73
2022/04/09 07:26:07;;;;;;;;;7.00;6.75;;;;;7.12;71.50;101082.34;5055259;28;45373;-72
2022/04/09 07:28:33;;;;;;;;;5.50;4.75;;;;;7.15;70.60;101085.78;5059497;28;45420;-75
2022/04/09 07:30:58;;;;;;;;;5.00;3.00;;;;;7.17;70.31;101075.06;5053774;28;45483;-73
2022/04/09 07:33:24;;;;;;;;;6.00;6.00;;;;;7.30;70.43;101081.84;5054489;28;45315;-74
2022/04/09 07:35:49;;;;;;;;;5.75;5.50;;;;;7.26;70.11;101082.81;5062279;28;45411;-74
2022/04/09 07:38:16;;;;;;;;;10.25;6.50;;;;;7.27;70.15;101079.25;5040494;28;45739;-75
2022/04/09 07:40:41;;;;;;;;;5.00;5.00;;;;;7.39;70.16;101084.25;5046336;28;46148;-73
2022/04/09 07:43:06;;;;;;;;;7.00;5.75;;;;;7.51;68.83;101096.38;5063233;28;46401;-73
2022/04/09 07:45:32;;;;;;;;;6.00;3.75;;;;;7.47;69.60;101092.06;5062556;28;45365;-74
2022/04/09 07:47:59;;;;;;;;;5.00;3.50;;;;;7.52;69.85;101095.47;5062177;28;45339;-74
2022/04/09 07:50:25;;;;;;;;;6.00;6.00;;;;;7.46;69.28;101091.19;5060343;28;45610;-71
2022/04/09 07:52:51;;;;;;;;;7.25;5.50;;;;;7.54;69.10;101104.31;5064054;28;45334;-72
2022/04/09 07:55:18;;;;;;;;;5.00;5.00;;;;;7.50;69.28;101102.63;5064045;28;45233;-74
2022/04/09 07:57:45;;;;;;;;;7.00;6.00;;;;;7.46;69.45;101101.84;5063249;28;45466;-73
2022/04/09 08:00:11;;;;;;;;;5.50;5.50;;;;;7.50;68.18;101114.16;5061856;28;45377;-71
2022/04/09 08:02:37;;;;;;;;;6.00;6.00;;;;;7.48;69.34;101121.38;5064890;28;45761;-72
2022/04/09 08:05:03;;;;;;;;;5.00;4.25;;;;;7.47;68.56;101105.41;5063529;28;45627;-74
2022/04/09 08:07:28;;;;;;;;;6.50;6.00;;;;;7.60;69.30;101112.13;5063294;28;45300;-74
2022/04/09 08:09:54;;;;;;;;;9.75;6.00;;;;;7.71;69.17;101122.50;5061926;28;45263;-73
2022/04/09 08:12:19;;;;;;;;;8.50;6.00;;;;;7.64;68.31;101105.81;5063261;28;45384;-77
2022/04/09 08:14:45;;;;;;;;;5.50;5.50;;;;;7.74;67.75;101117.09;5062374;28;45419;-76
2022/04/09 08:17:12;;;;;;;;;6.75;5.00;;;;;7.72;68.01;101122.47;5063368;28;45518;-78
2022/04/09 08:19:37;;;;;;;;;7.75;7.00;;;;;7.69;67.35;101117.22;5064287;28;45481;-77
2022/04/09 08:22:04;;;;;;;;;8.50;6.00;;;;;7.71;67.47;101120.72;5063974;28;45502;-75
2022/04/09 08:24:30;;;;;;;;;5.00;5.00;;;;;7.78;67.61;101121.41;5058268;28;45592;-74
2022/04/09 08:26:56;;;;;;;;;7.75;7.00;;;;;7.83;67.08;101124.81;5065198;28;45422;-73
2022/04/09 08:29:21;;;;;;;;;6.25;6.25;;;;;7.77;67.04;101130.34;5060038;28;45384;-73
2022/04/09 08:31:47;;;;;;;;;7.75;7.50;;;;;7.78;67.71;101134.75;5063751;28;45855;-73
2022/04/09 08:34:17;;;;;;;;;5.75;4.25;;;;;7.74;67.45;101133.94;5061621;28;45430;-74
2022/04/09 08:36:43;;;;;;;;;6.75;6.75;;;;;7.71;67.53;101139.41;5058920;28;45333;-75
2022/04/09 08:39:09;;;;;;;;;8.75;8.75;;;;;7.83;67.43;101151.50;5054474;28;45361;-73
2022/04/09 08:41:40;;;;;;;;;4.25;4.25;;;;;7.85;67.58;101155.88;5054104;28;45477;-74
2022/04/09 08:44:07;;;;;;;;;8.25;7.25;;;;;7.87;67.59;101153.19;5054157;28;45324;-73
2022/04/09 08:46:34;;;;;;;;;9.50;7.75;;;;;7.93;66.51;101161.00;5054248;28;45419;-75
2022/04/09 08:49:04;;;;;;;;;5.75;5.75;;;;;7.92;66.32;101165.47;5053740;28;45401;-74
2022/04/09 08:51:29;;;;;;;;;7.00;6.50;;;;;7.93;66.01;101172.56;5054102;28;46016;-74
2022/04/09 08:53:55;;;;;;;;;9.25;6.75;;;;;7.86;65.45;101179.00;5054218;28;45386;-73
2022/04/09 08:56:21;;;;;;;;;6.25;5.00;;;;;7.75;65.82;101170.41;5054638;28;45488;-74
2022/04/09 08:58:46;;;;;;;;;7.00;7.00;;;;;7.83;65.55;101180.88;5054741;28;45169;-74
2022/04/09 09:01:12;;;;;;;;;6.00;6.00;;;;;7.90;66.11;101185.13;5055392;28;45453;-74
2022/04/09 09:03:38;;;;;;;;;6.00;6.00;;;;;7.95;65.44;101189.41;5057623;28;45359;-75
2022/04/09 09:06:30;;;;;;;;;7.50;6.00;;;;;8.03;64.77;101193.66;5058773;28;45245;-73
2022/04/09 09:09:00;;;;;;;;;3.00;3.00;;;;;7.99;64.14;101183.06;5057450;28;45189;-74
2022/04/09 09:11:27;;;;;;;;;5.00;5.00;;;;;8.01;64.02;101195.50;5055061;28;45404;-75
2022/04/09 09:13:56;;;;;;;;;5.00;5.00;;;;;8.02;64.29;101190.13;5054555;28;45492;-74
2022/04/09 09:16:32;;;;;;;;;6.00;3.75;;;;;7.99;63.98;101196.41;5057348;28;45347;-74
2022/04/09 09:19:05;;;;;;;;;4.75;4.25;;;;;8.02;64.41;101173.22;5065096;28;45374;-73
2022/04/09 09:21:31;;;;;;;;;3.00;3.00;;;;;8.19;63.91;101186.97;5057493;28;46237;-75
2022/04/09 09:24:09;;;;;;;;;7.00;6.00;;;;;8.39;63.74;101197.09;5056691;28;45549;-74
2022/04/09 09:26:39;;;;;;;;;4.00;4.00;;;;;8.37;62.35;101194.47;5034914;28;45662;-72
2022/04/09 09:29:05;;;;;;;;;5.00;5.00;;;;;8.33;61.97;101199.06;5056023;28;46468;-74
2022/04/09 09:31:44;;;;;;;;;4.25;4.25;;;;;8.51;61.77;101218.97;5037679;28;46291;-73
2022/04/09 09:34:14;;;;;;;;;6.00;4.25;;;;;8.57;60.94;101223.28;5056682;28;45435;-74
2022/04/09 09:36:42;;;;;;;;;3.50;3.50;;;;;8.62;60.46;101221.34;5057697;28;45138;-74
2022/04/09 09:39:12;;;;;;;;;6.00;3.75;;;;;8.48;59.09;101219.09;5055786;28;46118;-74
2022/04/09 09:41:49;;;;;;;;;4.25;4.25;;;;;8.34;60.11;101218.59;5056897;28;46146;-74
2022/04/09 09:44:16;;;;;;;;;5.50;5.50;;;;;8.45;60.61;101219.16;5057545;28;45344;-74
2022/04/09 09:46:43;;;;;;;;;7.00;7.00;;;;;8.55;60.63;101220.66;5057502;28;45207;-74
2022/04/09 09:49:08;;;;;;;;;6.25;5.50;;;;;8.74;61.61;101229.00;5056878;28;45230;-75
2022/04/09 09:51:34;;;;;;;;;6.75;5.50;;;;;8.95;60.44;101236.34;5055073;28;45462;-75
2022/04/09 09:54:08;;;;;;;;;11.00;6.00;;;;;9.08;60.43;101240.41;5052985;28;45487;-72
2022/04/09 09:56:35;;;;;;;;;5.50;3.75;;;;;9.18;59.92;101254.34;5055808;28;45439;-76
2022/04/09 09:59:01;;;;;;;;;6.25;6.25;;;;;8.95;58.39;101238.13;5056844;28;45685;-75
2022/04/09 10:01:27;;;;;;;;;7.75;7.00;;;;;8.79;60.13;101259.13;5056380;28;46451;-74
2022/04/09 10:03:54;;;;;;;;;8.50;7.75;;;;;8.79;60.36;101263.59;5056424;28;45398;-74
2022/04/09 10:06:21;;;;;;;;;6.25;5.50;;;;;8.84;61.21;101272.38;5055609;28;45383;-75
2022/04/09 10:08:47;;;;;;;;;6.00;6.00;;;;;8.86;60.89;101276.72;5057146;28;45240;-73
2022/04/09 10:11:15;;;;;;;;;9.00;6.25;;;;;8.91;60.99;101284.63;5056552;28;46035;-74
2022/04/09 10:13:43;;;;;;;;;6.00;6.00;;;;;9.00;60.15;101290.56;5055851;28;45564;-73
2022/04/09 10:16:10;;;;;;;;;5.75;3.75;;;;;8.99;59.95;101279.91;5056112;28;45601;-79
2022/04/09 10:18:36;;;;;;;;;7.50;7.50;;;;;9.14;59.81;101283.91;5073539;28;45468;-76
2022/04/09 10:21:02;;;;;;;;;8.25;7.00;;;;;8.93;59.98;101262.25;5056044;28;46382;-76
2022/04/09 10:23:32;;;;;;;;;9.25;8.00;;;;;9.11;60.56;101298.25;5055215;28;45374;-74
2022/04/09 10:26:00;;;;;;;;;9.00;9.00;;;;;9.10;58.92;101302.72;5041494;28;45780;-76
2022/04/09 10:28:34;;;;;;;;;10.25;10.00;;;;;8.86;59.40;101275.84;5059294;28;45540;-78
2022/04/09 10:31:00;;;;;;;;;7.00;7.00;;;;;8.90;59.45;101305.13;5043617;28;46325;-74
2022/04/09 10:33:30;;;;;;;;;7.00;7.00;;;;;8.82;59.85;101295.59;5055804;28;45391;-83
2022/04/09 10:36:01;;;;;;;;;9.25;7.25;;;;;8.97;60.06;101316.53;5056257;28;45511;-75
2022/04/09 10:38:27;;;;;;;;;8.25;8.25;;;;;9.00;59.36;101311.09;5037782;28;46041;-76
2022/04/09 10:40:55;;;;;;;;;8.00;7.25;;;;;9.10;59.52;101307.22;5056372;28;46448;-73
2022/04/09 10:43:20;;;;;;;;;9.00;7.00;;;;;9.17;59.51;101314.13;5055707;28;45490;-77
2022/04/09 10:46:15;;;;;;;;;9.00;7.25;;;;;9.25;59.41;101309.41;5056150;28;45466;-78
2022/04/09 10:48:42;;;;;;;;;10.00;10.00;;;;;9.26;59.35;101324.53;5055108;28;45471;-77
2022/04/09 10:51:12;;;;;;;;;8.50;7.50;;;;;9.03;59.59;101321.66;5037464;28;46277;-80
2022/04/09 10:53:40;;;;;;;;;7.00;7.00;;;;;8.92;59.09;101319.34;5031145;28;45477;-77
2022/04/09 10:56:24;;;;;;;;;12.00;9.25;;;;;8.47;59.94;101264.56;5057021;28;45507;-78
2022/04/09 10:59:06;;;;;;;;;5.00;5.00;;;;;8.73;60.15;101323.47;5077248;28;45437;-79
2022/04/09 11:01:46;;;;;;;;;7.75;6.00;;;;;8.58;60.84;101326.59;5079027;28;46068;-77
2022/04/09 11:04:27;;;;;;;;;6.00;6.00;;;;;8.57;61.02;101333.72;5054897;28;45278;-77
2022/04/09 11:07:06;;;;;;;;;7.75;6.25;;;;;8.47;60.55;101316.19;5075939;28;45544;-80
2022/04/09 11:09:53;;;;;;;;;6.75;6.75;;;;;8.57;61.09;101335.53;5071843;28;45398;-75
2022/04/09 11:12:24;;;;;;;;;8.00;6.25;;;;;8.54;61.39;101338.28;5055247;28;46292;-78
2022/04/09 11:14:50;;;;;;;;;8.75;7.50;;;;;8.50;61.82;101334.84;5055514;28;45693;-74
2022/04/09 11:17:23;;;;;;;;;7.25;7.00;;;;;8.61;61.66;101334.50;5054696;28;45453;-73
2022/04/09 11:19:49;;;;;;;;;15.00;8.75;;;;;8.64;60.91;101335.31;5048807;28;45606;-76
2022/04/09 11:22:15;;;;;;;;;9.50;9.50;;;;;8.75;61.57;101336.81;5055093;28;45902;-75
2022/04/09 11:24:41;;;;;;;;;8.75;7.00;;;;;8.82;60.77;101343.72;5054907;28;45472;-77
2022/04/09 11:27:07;;;;;;;;;8.50;8.50;;;;;8.76;59.00;101325.19;5057293;28;45310;-74
2022/04/09 11:29:36;;;;;;;;;8.25;8.25;;;;;8.78;59.89;101334.00;5056156;28;45371;-78
2022/04/09 11:32:03;;;;;;;;;9.00;8.00;;;;;8.66;60.02;101330.81;5054576;28;48534;-73
2022/04/09 11:34:48;;;;;;;;;10.25;8.00;;;;;8.78;59.84;101340.25;5054827;28;45332;-72
2022/04/09 11:37:13;;;;;;;;;8.25;6.75;;;;;8.91;59.25;101341.66;5054680;28;45361;-73
2022/04/09 11:39:40;;;;;;;;;6.00;6.00;;;;;9.02;59.18;101346.66;5055650;28;45371;-74
2022/04/09 11:42:09;;;;;;;;;10.50;8.75;;;;;8.98;58.83;101351.25;5054819;28;45502;-73
2022/04/09 11:44:35;;;;;;;;;8.75;7.75;;;;;8.93;58.86;101341.63;5055382;28;45360;-74
2022/04/09 11:47:17;;;;;;;;;4.00;4.00;;;;;9.06;58.75;101346.53;5054654;28;45449;-73
2022/04/09 11:49:45;;;;;;;;;8.75;7.50;;;;;9.15;58.61;101340.03;5054761;28;45572;-75
2022/04/09 11:52:11;;;;;;;;;7.75;5.00;;;;;9.34;58.49;101343.03;5055138;28;46377;-73
2022/04/09 11:54:43;;;;;;;;;5.25;5.25;;;;;9.40;58.22;101329.44;5054275;28;45419;-73
2022/04/09 11:57:13;;;;;;;;;6.75;6.75;;;;;9.64;56.38;101347.38;5055094;28;45411;-71
2022/04/09 11:59:40;;;;;;;;;8.25;7.00;;;;;9.76;56.18;101352.34;5041416;28;45319;-73
2022/04/09 12:02:18;;;;;;;;;5.25;5.25;;;;;9.93;55.65;101350.91;5054740;28;45422;-72
2022/04/09 12:04:44;;;;;;;;;5.00;4.50;;;;;10.55;54.55;101346.06;5067500;28;45426;-74
2022/04/09 12:07:09;;;;;;;;;7.25;6.50;;;;;11.30;52.45;101347.69;5054750;28;45464;-75
2022/04/09 12:09:36;;;;;;;;;5.50;5.50;;;;;12.03;49.64;101333.97;5054276;28;45473;-72
2022/04/09 12:12:02;;;;;;;;;6.00;6.00;;;;;12.69;47.95;101323.88;5055007;28;46489;-80
2022/04/09 12:14:28;;;;;;;;;4.00;4.00;;;;;13.35;46.44;101337.00;5036329;28;45572;-78
2022/04/09 12:16:54;;;;;;;;;7.00;7.00;;;;;13.94;45.63;101331.38;5040010;28;45245;-77
2022/04/09 12:19:30;;;;;;;;;6.00;6.00;;;;;14.34;42.81;101339.16;5069605;28;45340;-76
2022/04/09 12:21:55;;;;;;;;;7.50;7.50;;;;;14.62;44.21;101335.91;5054225;28;45530;-76
2022/04/09 12:24:21;;;;;;;;;6.00;4.00;;;;;14.98;43.63;101338.44;5054561;28;45485;-77
2022/04/09 12:26:55;;;;;;;;;7.75;7.75;;;;;15.30;41.50;101346.59;5054728;28;45374;-80
2022/04/09 12:29:26;;;;;;;;;8.75;7.50;;;;;15.30;41.08;101347.47;5044095;28;46018;-77
2022/04/09 12:32:13;;;;;;;;;10.50;7.25;;;;;15.28;40.23;101345.81;5074567;28;46385;-70
2022/04/09 12:35:11;;;;;;;;;8.00;6.75;;;;;15.69;39.40;101346.19;5075972;28;45357;-75
2022/04/09 12:37:50;;;;;;;;;6.75;6.00;;;;;15.70;39.46;101331.72;5036603;28;45437;-80
2022/04/09 12:40:21;;;;;;;;;6.75;6.75;;;;;16.15;40.44;101341.69;5081916;28;45165;-75
2022/04/09 12:42:48;;;;;;;;;6.00;6.00;;;;;16.50;38.98;101337.69;5082108;28;45449;-77
2022/04/09 12:45:17;;;;;;;;;7.00;6.50;;;;;16.63;37.85;101337.88;5081594;28;45478;-76
2022/04/09 12:48:00;;;;;;;;;8.25;7.25;;;;;16.96;36.49;101340.31;5081278;28;45395;-76
2022/04/09 12:50:30;;;;;;;;;7.00;7.00;;;;;17.48;37.23;101340.56;5080512;28;45276;-75
2022/04/09 12:52:58;;;;;;;;;5.50;5.25;;;;;18.45;36.24;101327.69;5080965;28;46140;-77
2022/04/09 12:55:30;;;;;;;;;6.00;5.75;;;;;19.45;33.49;101327.78;5081192;28;46576;-73
2022/04/09 12:57:55;;;;;;;;;8.00;6.00;;;;;20.32;31.37;101328.41;5062747;28;45461;-76
2022/04/09 13:00:23;;;;;;;;;4.00;4.00;;;;;21.06;30.42;101320.75;5081059;28;45591;-77
2022/04/09 13:02:49;;;;;;;;;7.00;7.00;;;;;21.85;29.62;101317.81;5080821;28;47241;-79
2022/04/09 13:05:17;;;;;;;;;4.00;4.00;;;;;22.63;29.43;101324.78;5062175;28;45367;-75
2022/04/09 13:07:43;;;;;;;;;8.25;7.00;;;;;23.09;27.37;101316.16;5061935;28;45371;-75
2022/04/09 13:10:10;;;;;;;;;6.50;6.00;;;;;23.35;25.25;101325.66;5081203;28;45524;-76
2022/04/09 13:12:37;;;;;;;;;5.75;5.75;;;;;23.64;26.31;101325.78;5080548;28;46149;-76
2022/04/09 13:15:03;;;;;;;;;6.00;5.00;;;;;22.96;26.46;101326.50;5053809;28;45371;-76
2022/04/09 13:17:33;;;;;;;;;10.25;6.00;;;;;22.50;28.03;101322.28;5060380;28;45502;-75
2022/04/09 13:19:59;;;;;;;;;9.00;7.50;;;;;22.97;26.69;101333.66;5060209;28;45502;-77
2022/04/09 13:22:25;;;;;;;;;6.75;6.75;;;;;23.21;25.84;101336.09;5046623;28;45350;-77
2022/04/09 13:24:50;;;;;;;;;7.50;6.25;;;;;23.34;25.85;101332.13;5060537;28;45395;-76
2022/04/09 13:27:16;;;;;;;;;7.00;5.50;;;;;24.21;26.03;101328.75;5060237;28;45328;-75
2022/04/09 13:29:41;;;;;;;;;6.75;5.25;;;;;24.80;22.71;101323.06;5064909;28;45436;-76
2022/04/09 13:32:07;;;;;;;;;3.75;3.75;;;;;25.46;22.74;101333.94;5060061;28;45334;-77
2022/04/09 13:34:32;;;;;;;;;4.00;4.00;;;;;25.33;21.70;101325.22;5060208;28;45319;-77
2022/04/09 13:36:57;;;;;;;;;5.25;5.00;;;;;25.78;21.76;101334.38;5060432;28;45488;-75
2022/04/09 13:39:23;;;;;;;;;5.50;5.50;;;;;25.54;22.60;101309.34;5041934;28;46912;-77
2022/04/09 13:41:49;;;;;;;;;4.00;4.00;;;;;24.77;22.72;101323.34;5042127;28;46500;-75
2022/04/09 13:44:14;;;;;;;;;4.00;4.00;;;;;23.90;23.54;101312.44;5060304;28;45371;-76
2022/04/09 13:46:42;;;;;;;;;4.00;4.00;;;;;23.35;24.46;101327.50;5058146;28;45422;-76
2022/04/09 13:49:07;;;;;;;;;5.50;5.50;;;;;22.47;25.51;101327.13;5056720;28;45562;-75
2022/04/09 13:51:34;;;;;;;;;5.00;5.00;;;;;22.56;25.98;101335.41;5056581;28;45263;-75
2022/04/09 13:53:59;;;;;;;;;4.25;4.25;;;;;22.16;26.87;101326.16;5056771;28;45351;-77
2022/04/09 13:56:25;;;;;;;;;4.00;4.00;;;;;21.37;26.62;101311.84;5056384;28;45634;-77
2022/04/09 13:58:50;;;;;;;;;4.00;3.00;;;;;20.20;27.09;101347.53;5056921;28;45323;-75
2022/04/09 14:01:16;;;;;;;;;3.00;3.00;;;;;19.53;28.10;101339.84;5056572;28;45561;-75
2022/04/09 14:03:41;;;;;;;;;5.50;4.00;;;;;19.07;29.31;101338.69;5056497;28;46163;-76
2022/04/09 14:06:07;;;;;;;;;4.00;4.00;;;;;18.59;30.32;101330.34;5057022;28;45365;-76
2022/04/09 14:08:32;;;;;;;;;2.75;2.75;;;;;18.23;31.14;101327.44;5056561;28;45561;-76
2022/04/09 14:10:58;;;;;;;;;4.50;4.50;;;;;18.20;30.71;101330.38;5055199;28;47753;-76
2022/04/09 14:13:23;;;;;;;;;3.00;3.00;;;;;18.83;30.03;101330.47;5056678;28;45330;-76
2022/04/09 14:15:49;;;;;;;;;4.00;4.00;;;;;19.79;29.60;101324.31;5038276;28;45520;-72
2022/04/09 14:18:14;;;;;;;;;3.50;3.50;;;;;20.78;27.59;101324.81;5055452;28;45560;-73
2022/04/09 14:20:40;;;;;;;;;3.25;3.25;;;;;21.67;27.65;101310.31;5056272;28;45910;-71
2022/04/09 14:23:06;;;;;;;;;2.00;2.00;;;;;22.74;25.72;101319.28;5056732;28;45313;-72
2022/04/09 14:25:31;;;;;;;;;5.00;3.75;;;;;23.26;24.72;101304.59;5056536;28;45388;-73
2022/04/09 14:27:57;;;;;;;;;2.75;2.75;;;;;23.92;23.94;101290.34;5056260;28;45232;-75
2022/04/09 14:30:27;;;;;;;;;2.50;2.50;;;;;24.70;22.77;101294.78;5056008;28;46007;-71
2022/04/09 14:32:52;;;;;;;;;2.25;2.25;;;;;25.40;23.37;101286.03;5056078;28;45423;-73
2022/04/09 14:35:19;;;;;;;;;3.75;2.50;;;;;26.06;22.02;101291.22;5055847;28;45355;-74
2022/04/09 14:37:45;;;;;;;;;4.25;3.25;;;;;26.53;22.14;101299.25;5055904;28;45951;-74
2022/04/09 14:40:11;;;;;;;;;3.00;3.00;;;;;26.39;19.54;101297.91;5055770;28;45355;-75
2022/04/09 14:42:37;;;;;;;;;3.00;3.00;;;;;26.13;20.63;101297.81;5056096;28;45606;-74
2022/04/09 14:45:03;;;;;;;;;4.50;2.75;;;;;26.06;19.51;101290.38;5055804;28;45225;-73
2022/04/09 14:47:30;;;;;;;;;4.00;2.50;;;;;26.06;20.66;101274.75;5056010;28;45442;-76
2022/04/09 14:49:58;;;;;;;;;1.50;1.50;;;;;25.51;21.00;101291.31;5054851;28;46291;-72
2022/04/09 14:52:24;;;;;;;;;3.50;3.00;;;;;24.82;21.04;101293.59;5055705;28;45524;-75
2022/04/09 14:54:49;;;;;;;;;2.00;2.00;;;;;23.94;22.92;101291.06;5055938;28;45371;-75
2022/04/09 14:57:15;;;;;;;;;2.00;2.00;;;;;23.59;22.16;101286.13;5056130;28;45481;-74
2022/04/09 14:59:40;;;;;;;;;1.50;1.50;;;;;23.08;21.99;101287.09;5062033;28;45566;-77
2022/04/09 15:02:08;;;;;;;;;3.00;3.00;;;;;22.30;22.33;101281.28;5055437;28;46789;-71
2022/04/09 15:04:33;;;;;;;;;2.25;1.75;;;;;21.65;23.23;101294.06;5060360;28;45817;-74
2022/04/09 15:06:58;;;;;;;;;2.00;2.00;;;;;21.36;24.31;101279.22;5062365;28;45549;-76
2022/04/09 15:09:24;;;;;;;;;2.00;2.00;;;;;21.30;24.35;101269.69;5060045;28;45712;-76
2022/04/09 15:11:49;;;;;;;;;2.75;1.50;;;;;21.51;24.15;101289.75;5054966;28;45363;-72
2022/04/09 15:14:15;;;;;;;;;1.00;1.00;;;;;21.30;24.81;101275.16;5055597;28;45327;-73
2022/04/09 15:16:41;;;;;;;;;3.25;2.00;;;;;21.29;24.06;101289.78;5056788;28;45437;-75
2022/04/09 15:19:09;;;;;;;;;3.00;2.00;;;;;21.13;24.69;101294.72;5072413;28;46128;-71
2022/04/09 15:21:35;;;;;;;;;2.00;2.00;;;;;20.95;23.61;101299.78;5061498;28;45414;-75
2022/04/09 15:24:01;;;;;;;;;1.50;1.50;;;;;20.61;23.89;101300.75;5065167;28;45538;-73
2022/04/09 15:26:26;;;;;;;;;1.00;1.00;;;;;20.26;24.99;101301.63;5058575;28;45504;-75
2022/04/09 15:28:53;;;;;;;;;2.00;2.00;;;;;19.86;25.30;101294.78;5055173;28;45808;-75
2022/04/09 15:31:19;;;;;;;;;2.00;2.00;;;;;19.41;25.34;101296.34;5036952;28;45465;-71
2022/04/09 15:33:44;;;;;;;;;4.00;1.00;;;;;19.25;25.55;101311.06;5054840;28;45385;-73
2022/04/09 15:36:10;;;;;;;;;1.00;1.00;;;;;18.88;25.91;101290.25;5054776;28;45404;-75
2022/04/09 15:38:35;;;;;;;;;0.00;0.00;;;;;18.68;26.51;101279.94;5054819;28;45452;-76
2022/04/09 15:41:01;;;;;;;;;1.25;1.00;;;;;19.00;26.10;101315.66;5055288;28;45464;-75
2022/04/09 15:43:27;;;;;;;;;1.00;1.00;;;;;19.14;26.04;101315.56;5054994;28;45450;-73
2022/04/09 15:45:52;;;;;;;;;3.00;1.00;;;;;19.44;26.37;101301.56;5055105;28;46094;-72
2022/04/09 15:48:18;;;;;;;;;2.50;2.00;;;;;19.65;25.44;101302.69;5054317;28;45350;-74
2022/04/09 15:50:43;;;;;;;;;1.00;0.00;;;;;19.72;25.84;101314.00;5055241;28;45379;-73
2022/04/09 15:53:11;;;;;;;;;4.00;1.00;;;;;19.30;26.31;101313.47;5055367;28;45529;-73
2022/04/09 15:55:37;;;;;;;;;1.00;1.00;;;;;18.88;27.09;101318.28;5054814;28;45547;-72
2022/04/09 15:58:02;;;;;;;;;1.50;1.50;;;;;18.36;28.17;101328.34;5054443;28;45327;-72
2022/04/09 16:00:28;;;;;;;;;2.50;2.50;;;;;17.76;28.85;101324.25;5062865;28;45536;-76
2022/04/09 16:02:53;;;;;;;;;2.00;2.00;;;;;17.68;28.60;101326.59;5036562;28;45687;-76